createdAt,value
2017-08-24T00:02:17.275Z,11.80
2017-08-24T00:04:47.222Z,11.79
2017-08-24T00:07:16.964Z,11.79
2017-08-24T00:09:46.693Z,11.78
2017-08-24T00:12:16.283Z,11.75
2017-08-24T00:14:46.027Z,11.72
2017-08-24T00:17:15.841Z,11.72
2017-08-24T00:19:45.650Z,11.70
2017-08-24T00:22:15.383Z,11.70
2017-08-24T00:24:45.240Z,11.68
2017-08-24T00:27:15.122Z,11.66
2017-08-24T00:29:44.873Z,11.65
2017-08-24T00:32:14.681Z,11.65
2017-08-24T00:34:44.421Z,11.65
2017-08-24T00:37:14.379Z,11.64
2017-08-24T00:39:44.165Z,11.64
2017-08-24T00:42:13.941Z,11.64
2017-08-24T00:44:43.682Z,11.63
2017-08-24T00:47:13.706Z,11.59
2017-08-24T00:49:43.625Z,11.59
2017-08-24T00:52:13.351Z,11.57
2017-08-24T00:54:43.169Z,11.56
2017-08-24T00:57:12.881Z,11.56
2017-08-24T00:59:42.629Z,11.54
2017-08-24T01:02:12.009Z,11.54
2017-08-24T01:04:41.924Z,11.54
2017-08-24T01:07:11.724Z,11.50
2017-08-24T01:09:41.480Z,11.46
2017-08-24T01:12:11.201Z,11.45
2017-08-24T01:14:40.970Z,11.41
2017-08-24T01:17:10.709Z,11.41
2017-08-24T01:19:40.465Z,11.40
2017-08-24T01:22:10.189Z,11.40
2017-08-24T01:24:39.978Z,11.40
2017-08-24T01:27:09.361Z,11.37
2017-08-24T01:29:39.088Z,11.39
2017-08-24T01:32:08.975Z,11.36
2017-08-24T01:34:38.698Z,11.36
2017-08-24T01:37:08.431Z,11.35
2017-08-24T01:39:38.157Z,11.32
2017-08-24T01:42:07.871Z,11.29
2017-08-24T01:44:37.596Z,11.28
2017-08-24T01:47:07.328Z,11.26
2017-08-24T01:49:37.221Z,11.24
2017-08-24T01:52:07.059Z,11.22
2017-08-24T01:54:36.781Z,11.21
2017-08-24T01:57:06.513Z,11.19
2017-08-24T01:59:36.266Z,11.18
2017-08-24T02:02:05.998Z,11.16
2017-08-24T02:04:35.721Z,11.16
2017-08-24T02:07:05.440Z,11.13
2017-08-24T02:09:35.200Z,11.12
2017-08-24T02:12:04.604Z,11.10
2017-08-24T02:14:34.344Z,11.08
2017-08-24T02:17:04.256Z,11.09
2017-08-24T02:19:34.016Z,11.07
2017-08-24T02:22:03.745Z,11.07
2017-08-24T02:24:33.468Z,11.05
2017-08-24T02:27:03.467Z,11.03
2017-08-24T02:29:33.593Z,11.01
2017-08-24T02:32:03.309Z,11.00
2017-08-24T02:34:33.134Z,11.00
2017-08-24T02:37:02.837Z,10.97
2017-08-24T02:39:32.572Z,10.94
2017-08-24T02:42:02.297Z,10.93
2017-08-24T02:44:32.034Z,10.92
2017-08-24T02:47:01.590Z,10.93
2017-08-24T02:49:31.413Z,10.91
2017-08-24T02:52:01.188Z,10.90
2017-08-24T02:54:31.076Z,10.90
2017-08-24T02:57:00.801Z,10.90
2017-08-24T03:03:15.303Z,10.87
2017-08-24T03:05:45.580Z,10.86
2017-08-24T03:08:16.283Z,10.84
2017-08-24T03:10:45.659Z,10.84
2017-08-24T03:13:15.677Z,10.84
2017-08-24T03:15:45.399Z,10.82
2017-08-24T03:18:16.140Z,10.81
2017-08-24T03:20:48.558Z,10.81
2017-08-24T03:23:18.980Z,10.80
2017-08-24T03:25:50.322Z,10.79
2017-08-24T03:28:22.058Z,10.76
2017-08-24T03:30:51.806Z,10.73
2017-08-24T03:33:23.385Z,10.70
2017-08-24T03:35:54.089Z,10.68
2017-08-24T03:38:23.825Z,10.68
2017-08-24T03:40:53.569Z,10.67
2017-08-24T03:43:25.839Z,10.67
2017-08-24T03:45:56.521Z,10.66
2017-08-24T03:48:27.204Z,10.66
2017-08-24T03:50:57.383Z,10.68
2017-08-24T03:53:27.116Z,10.67
2017-08-24T03:55:59.490Z,10.66
2017-08-24T03:58:31.209Z,10.65
2017-08-24T04:01:00.944Z,10.63
2017-08-24T04:03:31.640Z,10.66
2017-08-24T04:06:01.904Z,10.66
2017-08-24T04:08:31.628Z,10.70
2017-08-24T04:11:01.357Z,10.72
2017-08-24T04:13:31.088Z,10.74
2017-08-24T04:16:01.268Z,10.78
2017-08-24T04:18:31.011Z,10.81
2017-08-24T04:21:02.900Z,10.79
2017-08-24T04:23:32.636Z,10.82
2017-08-24T04:26:03.377Z,10.84
2017-08-24T04:28:34.789Z,10.85
2017-08-24T04:31:04.525Z,10.88
2017-08-24T04:33:36.237Z,10.92
2017-08-24T04:36:05.968Z,10.97
2017-08-24T04:38:37.348Z,11.02
2017-08-24T04:41:07.057Z,11.06
2017-08-24T04:43:36.789Z,11.11
2017-08-24T04:46:07.549Z,11.16
2017-08-24T04:48:38.881Z,11.22
2017-08-24T04:51:09.067Z,11.28
2017-08-24T04:53:39.728Z,11.33
2017-08-24T04:56:10.025Z,11.39
2017-08-24T04:58:41.729Z,11.45
2017-08-24T05:01:11.493Z,11.52
2017-08-24T05:03:41.234Z,11.59
2017-08-24T05:06:10.993Z,11.67
2017-08-24T05:08:40.746Z,11.75
2017-08-24T05:11:11.310Z,11.84
2017-08-24T05:13:41.054Z,11.94
2017-08-24T05:16:10.789Z,12.03
2017-08-24T05:18:40.975Z,12.14
2017-08-24T05:21:11.641Z,12.26
2017-08-24T05:23:41.827Z,12.37
2017-08-24T05:26:11.561Z,12.47
2017-08-24T05:28:41.844Z,12.58
2017-08-24T05:31:11.577Z,12.68
2017-08-24T05:33:44.192Z,12.79
2017-08-24T05:36:15.604Z,12.92
2017-08-24T05:38:45.360Z,13.04
2017-08-24T05:41:15.117Z,13.17
2017-08-24T05:43:47.692Z,13.31
2017-08-24T05:46:18.121Z,13.45
2017-08-24T05:48:47.864Z,13.59
2017-08-24T05:51:18.045Z,13.71
2017-08-24T05:53:47.796Z,13.84
2017-08-24T05:56:19.504Z,13.98
2017-08-24T05:58:50.893Z,14.11
2017-08-24T06:01:20.465Z,14.26
2017-08-24T06:03:50.204Z,14.35
2017-08-24T06:06:21.572Z,14.50
2017-08-24T06:08:53.200Z,14.62
2017-08-24T06:11:23.320Z,14.76
2017-08-24T06:13:55.358Z,14.90
2017-08-24T06:16:26.052Z,15.03
2017-08-24T06:18:57.103Z,15.17
2017-08-24T06:21:27.460Z,15.31
2017-08-24T06:23:58.461Z,15.43
2017-08-24T06:26:27.912Z,15.55
2017-08-24T06:28:59.218Z,15.67
2017-08-24T06:31:30.745Z,15.76
2017-08-24T06:34:00.825Z,15.90
2017-08-24T06:36:30.285Z,16.01
2017-08-24T06:39:01.434Z,16.18
2017-08-24T06:41:30.718Z,16.34
2017-08-24T06:44:01.012Z,16.49
2017-08-24T06:46:30.473Z,16.59
2017-08-24T06:49:02.767Z,16.71
2017-08-24T06:51:33.801Z,16.81
2017-08-24T06:54:03.695Z,17.00
2017-08-24T06:56:33.693Z,16.92
2017-08-24T06:59:05.741Z,17.16
2017-08-24T07:01:35.031Z,17.24
2017-08-24T07:04:06.308Z,17.36
2017-08-24T07:06:36.782Z,17.56
2017-08-24T07:09:07.153Z,17.69
2017-08-24T07:11:37.568Z,17.85
2017-08-24T07:14:08.651Z,17.94
2017-08-24T07:16:38.100Z,18.06
2017-08-24T07:19:09.308Z,18.05
2017-08-24T07:21:40.796Z,18.12
2017-08-24T07:24:10.251Z,18.23
2017-08-24T07:26:40.389Z,18.28
2017-08-24T07:29:13.017Z,18.43
2017-08-24T07:31:43.419Z,18.55
2017-08-24T07:34:14.523Z,18.72
2017-08-24T07:36:44.045Z,18.84
2017-08-24T07:39:15.520Z,19.07
2017-08-24T07:41:45.924Z,19.23
2017-08-24T07:44:15.364Z,19.44
2017-08-24T07:46:48.650Z,19.60
2017-08-24T07:49:19.164Z,19.61
2017-08-24T07:51:51.518Z,19.86
2017-08-24T07:54:22.528Z,19.84
2017-08-24T07:56:53.467Z,19.91
2017-08-24T07:59:22.919Z,20.23
2017-08-24T08:01:54.353Z,20.44
2017-08-24T08:04:23.800Z,20.45
2017-08-24T08:06:53.777Z,20.70
2017-08-24T08:09:23.253Z,20.63
2017-08-24T08:11:53.264Z,20.72
2017-08-24T08:14:23.741Z,20.96
2017-08-24T08:16:54.853Z,21.28
2017-08-24T08:19:24.968Z,21.68
2017-08-24T08:21:56.200Z,21.87
2017-08-24T08:24:27.728Z,22.20
2017-08-24T08:26:58.740Z,22.42
2017-08-24T08:29:28.211Z,22.51
2017-08-24T08:31:57.788Z,22.51
2017-08-24T08:34:27.237Z,22.59
2017-08-24T08:36:58.582Z,22.74
2017-08-24T08:39:28.033Z,22.91
2017-08-24T08:41:58.025Z,22.92
2017-08-24T08:44:27.957Z,23.10
2017-08-24T08:46:58.653Z,23.16
2017-08-24T08:49:30.585Z,23.11
2017-08-24T08:52:00.060Z,23.16
2017-08-24T08:54:29.512Z,23.15
2017-08-24T08:57:01.493Z,23.20
2017-08-24T08:59:32.610Z,23.35
2017-08-24T09:02:03.079Z,23.35
2017-08-24T09:04:34.283Z,23.31
2017-08-24T09:07:03.809Z,23.46
2017-08-24T09:09:33.805Z,23.69
2017-08-24T09:12:03.824Z,23.91
2017-08-24T09:14:35.107Z,24.00
2017-08-24T09:17:05.414Z,24.13
2017-08-24T09:19:36.305Z,24.31
2017-08-24T09:22:07.388Z,24.51
2017-08-24T09:24:36.856Z,24.67
2017-08-24T09:27:08.235Z,24.99
2017-08-24T09:29:37.685Z,25.07
2017-08-24T09:32:08.616Z,25.34
2017-08-24T09:34:41.714Z,25.51
2017-08-24T09:37:11.163Z,25.62
2017-08-24T09:39:43.877Z,25.55
2017-08-24T09:42:14.283Z,25.87
2017-08-24T09:44:45.212Z,25.93
2017-08-24T09:47:16.684Z,25.88
2017-08-24T09:49:48.105Z,25.64
2017-08-24T09:52:17.688Z,26.02
2017-08-24T09:54:47.143Z,25.78
2017-08-24T09:57:18.384Z,26.02
2017-08-24T09:59:47.833Z,26.21
2017-08-24T10:02:19.245Z,26.31
2017-08-24T10:04:49.708Z,26.41
2017-08-24T10:07:20.899Z,26.52
2017-08-24T10:09:50.700Z,26.54
2017-08-24T10:12:21.431Z,26.85
2017-08-24T10:14:50.676Z,26.89
2017-08-24T10:17:20.792Z,26.71
2017-08-24T10:19:50.049Z,26.96
2017-08-24T10:22:21.531Z,27.20
2017-08-24T10:24:50.978Z,27.01
2017-08-24T10:27:22.273Z,26.89
2017-08-24T10:29:55.382Z,27.02
2017-08-24T10:32:25.022Z,27.15
2017-08-24T10:34:55.985Z,27.56
2017-08-24T10:37:26.934Z,27.77
2017-08-24T10:39:58.886Z,28.08
2017-08-24T10:42:31.146Z,28.42
2017-08-24T10:45:00.609Z,28.68
2017-08-24T10:47:32.573Z,28.88
2017-08-24T10:50:03.759Z,29.08
2017-08-24T10:52:33.229Z,29.17
2017-08-24T10:55:04.362Z,29.20
2017-08-24T10:57:33.801Z,29.43
2017-08-24T11:00:03.797Z,29.45
2017-08-24T11:02:34.280Z,29.64
2017-08-24T11:05:04.842Z,29.32
2017-08-24T11:07:34.848Z,29.21
2017-08-24T11:10:04.901Z,29.35
2017-08-24T11:12:34.807Z,29.81
2017-08-24T11:15:06.400Z,29.71
2017-08-24T11:17:37.192Z,30.18
2017-08-24T11:20:09.365Z,29.90
2017-08-24T11:22:40.600Z,29.52
2017-08-24T11:25:10.111Z,29.68
2017-08-24T11:27:41.096Z,29.94
2017-08-24T11:30:14.893Z,30.30
2017-08-24T11:32:46.896Z,30.74
2017-08-24T11:35:22.218Z,30.89
2017-08-24T11:38:00.563Z,30.72
2017-08-24T11:40:33.763Z,30.86
2017-08-24T11:43:09.036Z,30.90
2017-08-24T11:45:53.812Z,31.38
2017-08-24T11:48:28.755Z,31.76
2017-08-24T11:51:06.058Z,31.89
2017-08-24T11:53:40.629Z,31.92
2017-08-24T11:56:12.875Z,31.92
2017-08-24T11:58:51.823Z,31.94
2017-08-24T12:01:25.222Z,31.96
2017-08-24T12:04:09.857Z,32.07
2017-08-24T12:06:47.700Z,32.18
2017-08-24T12:09:24.955Z,32.43
2017-08-24T12:12:06.292Z,32.55
2017-08-24T12:14:42.070Z,32.54
2017-08-24T12:17:24.136Z,32.81
2017-08-24T12:20:14.412Z,32.93
2017-08-24T12:22:46.084Z,33.43
2017-08-24T12:25:22.858Z,34.15
2017-08-24T12:27:58.062Z,35.00
2017-08-24T12:30:36.519Z,35.51
2017-08-24T12:33:11.507Z,36.11
2017-08-24T12:35:47.610Z,36.37
2017-08-24T12:38:27.481Z,37.38
2017-08-24T12:41:06.832Z,37.28
2017-08-24T12:43:45.138Z,37.83
2017-08-24T12:46:17.464Z,37.42
2017-08-24T12:48:50.172Z,38.83
2017-08-24T12:51:30.863Z,39.62
2017-08-24T12:54:01.253Z,39.06
2017-08-24T12:56:34.442Z,39.01
2017-08-24T12:59:04.870Z,39.33
2017-08-24T13:01:34.116Z,37.19
2017-08-24T13:04:04.028Z,37.19
2017-08-24T13:06:33.493Z,36.54
2017-08-24T13:09:04.021Z,37.95
2017-08-24T13:11:35.392Z,36.35
2017-08-24T13:14:06.428Z,35.71
2017-08-24T13:16:37.671Z,35.43
2017-08-24T13:19:09.235Z,35.77
2017-08-24T13:21:39.074Z,36.04
2017-08-24T13:24:10.126Z,35.77
2017-08-24T13:26:42.199Z,35.94
2017-08-24T13:29:20.966Z,36.10
2017-08-24T13:31:53.970Z,36.24
2017-08-24T13:34:25.968Z,35.83
2017-08-24T13:36:57.073Z,34.96
2017-08-24T13:39:27.189Z,35.56
2017-08-24T13:41:57.803Z,35.89
2017-08-24T13:44:28.768Z,35.98
2017-08-24T13:46:58.744Z,37.02
2017-08-24T13:49:29.176Z,37.71
2017-08-24T13:51:59.585Z,37.94
2017-08-24T13:54:29.041Z,37.85
2017-08-24T13:56:58.953Z,37.55
2017-08-24T13:59:29.882Z,37.02
2017-08-24T14:02:00.785Z,37.31
2017-08-24T14:04:31.688Z,38.19
2017-08-24T14:07:02.527Z,38.70
2017-08-24T14:09:33.835Z,39.57
2017-08-24T14:12:05.719Z,39.33
2017-08-24T14:14:36.247Z,38.25
2017-08-24T14:17:07.040Z,38.97
2017-08-24T14:19:36.946Z,39.81
2017-08-24T14:22:06.935Z,40.25
2017-08-24T14:24:37.765Z,39.77
2017-08-24T14:27:07.548Z,40.56
2017-08-24T14:29:39.495Z,41.45
2017-08-24T14:32:10.357Z,40.11
2017-08-24T14:34:40.060Z,41.65
2017-08-24T14:37:10.038Z,42.09
2017-08-24T14:39:40.025Z,42.87
2017-08-24T14:42:09.788Z,43.87
2017-08-24T14:44:41.085Z,44.59
2017-08-24T14:47:10.325Z,45.08
2017-08-24T14:49:40.216Z,44.94
2017-08-24T14:52:11.235Z,45.10
2017-08-24T14:54:40.517Z,45.35
2017-08-24T14:57:13.771Z,45.24
2017-08-24T14:59:43.037Z,46.00
2017-08-24T15:02:14.180Z,45.58
2017-08-24T15:04:44.360Z,44.83
2017-08-24T15:07:15.704Z,43.30
2017-08-24T15:09:46.563Z,43.09
2017-08-24T15:12:17.753Z,43.41
2017-08-24T15:14:47.026Z,43.41
2017-08-24T15:17:17.054Z,42.00
2017-08-24T15:19:47.062Z,41.58
2017-08-24T15:22:16.827Z,41.63
2017-08-24T15:24:48.749Z,42.41
2017-08-24T15:27:20.597Z,41.92
2017-08-24T15:29:52.551Z,42.27
2017-08-24T15:32:24.405Z,41.89
2017-08-24T15:34:55.256Z,41.52
2017-08-24T15:37:24.504Z,41.61
2017-08-24T15:39:53.753Z,40.80
2017-08-24T15:42:24.741Z,41.04
2017-08-24T15:44:55.019Z,40.38
2017-08-24T15:47:24.294Z,40.69
2017-08-24T15:49:55.329Z,40.36
2017-08-24T15:52:25.019Z,40.73
2017-08-24T15:54:54.803Z,40.52
2017-08-24T15:57:25.747Z,40.61
2017-08-24T15:59:54.982Z,40.29
2017-08-24T16:02:24.241Z,40.93
2017-08-24T16:04:57.353Z,40.47
2017-08-24T16:07:26.582Z,40.32
2017-08-24T16:09:55.826Z,40.29
2017-08-24T16:12:26.648Z,39.97
2017-08-24T16:14:58.493Z,39.21
2017-08-24T16:17:29.425Z,40.20
2017-08-24T16:20:00.385Z,40.66
2017-08-24T16:22:30.184Z,40.29
2017-08-24T16:24:59.421Z,40.65
2017-08-24T16:27:28.660Z,40.34
2017-08-24T16:29:58.869Z,40.53
2017-08-24T16:32:29.723Z,40.40
2017-08-24T16:34:59.505Z,40.19
2017-08-24T16:37:31.521Z,40.13
2017-08-24T16:40:02.435Z,39.76
2017-08-24T16:42:32.649Z,39.40
2017-08-24T16:45:03.365Z,38.88
2017-08-24T16:47:33.613Z,38.49
2017-08-24T16:50:04.541Z,38.26
2017-08-24T16:52:37.425Z,37.77
2017-08-24T16:55:06.705Z,37.43
2017-08-24T16:57:35.940Z,36.82
2017-08-24T17:00:05.239Z,35.99
2017-08-24T17:02:34.475Z,35.68
2017-08-24T17:05:07.649Z,35.50
2017-08-24T17:07:37.882Z,35.07
2017-08-24T17:10:10.094Z,34.63
2017-08-24T17:12:42.093Z,34.15
2017-08-24T17:15:11.356Z,33.80
2017-08-24T17:17:42.623Z,32.80
2017-08-24T17:20:12.452Z,32.07
2017-08-24T17:22:42.468Z,31.49
2017-08-24T17:25:13.874Z,30.78
2017-08-24T17:27:47.197Z,30.28
2017-08-24T17:30:17.059Z,29.77
2017-08-24T17:32:47.248Z,29.43
2017-08-24T17:35:18.558Z,28.93
2017-08-24T17:37:49.457Z,28.53
2017-08-24T17:40:20.304Z,28.21
2017-08-24T17:42:50.006Z,27.81
2017-08-24T17:45:20.082Z,27.40
2017-08-24T17:47:49.993Z,27.15
2017-08-24T17:50:20.825Z,26.84
2017-08-24T17:52:51.796Z,26.54
2017-08-24T17:55:23.053Z,26.26
2017-08-24T17:57:54.228Z,25.97
2017-08-24T18:00:25.142Z,25.68
2017-08-24T18:02:56.025Z,25.48
2017-08-24T18:05:25.913Z,25.24
2017-08-24T18:07:57.028Z,24.98
2017-08-24T18:10:28.801Z,24.76
2017-08-24T18:12:58.784Z,24.58
2017-08-24T18:15:29.757Z,24.39
2017-08-24T18:18:01.605Z,24.14
2017-08-24T18:20:33.528Z,23.92
2017-08-24T18:23:04.439Z,23.75
2017-08-24T18:25:35.441Z,23.60
2017-08-24T18:28:04.718Z,23.46
2017-08-24T18:30:37.898Z,23.33
2017-08-24T18:33:08.835Z,23.18
2017-08-24T18:35:38.330Z,23.06
2017-08-24T18:38:07.598Z,22.93
2017-08-24T18:40:38.178Z,22.84
2017-08-24T18:43:07.423Z,22.72
2017-08-24T18:45:38.456Z,22.61
2017-08-24T18:48:08.258Z,22.50
2017-08-24T18:50:38.210Z,22.39
2017-08-24T18:53:07.452Z,22.28
2017-08-24T18:55:37.717Z,22.17
2017-08-24T18:58:08.869Z,22.09
2017-08-24T19:00:38.463Z,22.01
2017-08-24T19:03:09.497Z,21.91
2017-08-24T19:05:40.558Z,21.81
2017-08-24T19:08:12.263Z,21.73
2017-08-24T19:10:42.432Z,21.65
2017-08-24T19:13:12.144Z,21.56
2017-08-24T19:15:42.105Z,21.50
2017-08-24T19:18:12.107Z,21.43
2017-08-24T19:20:43.028Z,21.33
2017-08-24T19:25:57.137Z,21.17
2017-08-24T19:28:26.936Z,21.10
2017-08-24T19:30:56.925Z,21.03
2017-08-24T19:33:30.170Z,20.94
2017-08-24T19:35:59.993Z,20.86
2017-08-24T19:38:29.269Z,20.79
2017-08-24T19:40:58.743Z,20.72
2017-08-24T19:43:30.753Z,20.65
2017-08-24T19:46:00.220Z,20.57
2017-08-24T19:48:31.644Z,20.51
2017-08-24T19:51:02.165Z,20.44
2017-08-24T19:53:32.144Z,20.38
2017-08-24T19:56:04.289Z,20.33
2017-08-24T19:58:35.136Z,20.27
2017-08-24T20:01:05.053Z,20.22
2017-08-24T20:03:34.507Z,20.18
2017-08-24T20:06:05.669Z,20.15
2017-08-24T20:08:36.172Z,20.13
2017-08-24T20:11:05.948Z,20.08
2017-08-24T20:13:38.064Z,20.04
2017-08-24T20:16:09.105Z,20.02
2017-08-24T20:18:41.493Z,20.01
2017-08-24T20:21:13.008Z,19.99
2017-08-24T20:23:42.997Z,19.95
2017-08-24T20:26:12.725Z,19.93
2017-08-24T20:28:42.836Z,19.91
2017-08-24T20:31:12.310Z,19.87
2017-08-24T20:33:42.343Z,19.84
2017-08-24T20:36:12.822Z,19.81
2017-08-24T20:38:43.912Z,19.79
2017-08-24T20:41:15.058Z,19.78
2017-08-24T20:43:46.049Z,19.76
2017-08-24T20:46:16.592Z,19.74
2017-08-24T20:48:49.709Z,19.73
2017-08-24T20:51:19.197Z,19.73
2017-08-24T20:53:49.640Z,19.76
2017-08-24T20:56:20.652Z,19.76
2017-08-24T20:58:52.109Z,19.74
2017-08-24T21:01:23.492Z,19.73
2017-08-24T21:03:53.409Z,19.70
2017-08-24T21:06:24.737Z,19.67
2017-08-24T21:08:54.215Z,19.61
2017-08-24T21:11:25.731Z,19.56
2017-08-24T21:13:55.218Z,19.52
2017-08-24T21:16:25.703Z,19.46
2017-08-24T21:18:57.796Z,19.43
2017-08-24T21:21:27.251Z,19.42
2017-08-24T21:23:59.700Z,19.43
2017-08-24T21:26:29.177Z,19.43
2017-08-24T21:29:01.387Z,19.43
2017-08-24T21:31:30.893Z,19.44
2017-08-24T21:34:00.897Z,19.44
2017-08-24T21:36:33.878Z,19.49
2017-08-24T21:39:03.145Z,19.56
2017-08-24T21:41:32.612Z,19.60
2017-08-24T21:44:03.003Z,19.71
2017-08-24T21:46:34.289Z,19.97
2017-08-24T21:49:03.748Z,20.27
2017-08-24T21:51:35.184Z,20.40
2017-08-24T21:54:04.641Z,20.67
2017-08-24T21:56:35.752Z,20.94
2017-08-24T21:59:05.046Z,21.43
2017-08-24T22:01:36.665Z,21.67
2017-08-24T22:04:06.129Z,21.77
2017-08-24T22:06:36.547Z,22.10
2017-08-24T22:09:06.513Z,22.19
2017-08-24T22:11:37.421Z,22.28
2017-08-24T22:14:08.832Z,22.36
2017-08-24T22:16:39.230Z,22.38
2017-08-24T22:19:09.652Z,22.43
2017-08-24T22:21:41.960Z,22.40
2017-08-24T22:24:13.269Z,22.38
2017-08-24T22:26:43.173Z,22.36
2017-08-24T22:29:16.094Z,22.33
2017-08-24T22:31:46.487Z,22.36
2017-08-24T22:34:17.940Z,22.34
2017-08-24T22:36:47.396Z,22.34
2017-08-24T22:39:18.872Z,22.33
2017-08-24T22:41:48.332Z,22.28
2017-08-24T22:44:18.523Z,22.24
2017-08-24T22:46:49.531Z,22.20
2017-08-24T22:49:20.840Z,22.22
2017-08-24T22:51:51.334Z,22.21
2017-08-24T22:54:28.964Z,22.12
2017-08-24T22:57:05.737Z,22.09
2017-08-24T22:59:41.709Z,22.11
2017-08-24T23:02:17.233Z,22.06
2017-08-24T23:04:47.664Z,22.06
2017-08-24T23:07:18.624Z,22.08
2017-08-24T23:09:48.096Z,22.01
2017-08-24T23:12:19.420Z,21.98
2017-08-24T23:14:49.531Z,21.95
2017-08-24T23:17:19.417Z,21.89
2017-08-24T23:19:48.684Z,21.84
2017-08-24T23:22:20.716Z,21.84
2017-08-24T23:24:51.432Z,21.78
2017-08-24T23:27:22.707Z,21.78
2017-08-24T23:29:52.194Z,21.69
2017-08-24T23:32:23.345Z,21.56
2017-08-24T23:34:53.247Z,21.61
2017-08-24T23:37:22.681Z,21.46
2017-08-24T23:39:54.772Z,21.45
2017-08-24T23:42:26.164Z,21.46
2017-08-24T23:44:55.613Z,21.32
2017-08-24T23:47:26.716Z,21.25
2017-08-24T23:49:57.604Z,21.15
2017-08-24T23:52:27.597Z,21.09
2017-08-24T23:54:57.061Z,20.97
2017-08-24T23:57:26.312Z,20.85
2017-08-24T23:59:56.257Z,20.73
